Time;durP1;ratioP1;P1;durP2;ratioP2;P2;SDS_P1;SDS_P2;PMS_P1;PMS_P2;Temp;Humidity;BMP_temperature;BMP_pressure;BME280_temperature;BME280_humidity;BME280_pressure;Samples;Min_cycle;Max_cycle;Signal;HPM_P1;HPM_P2
2023/01/06 00:01:27;;;;;;;6.00;3.33;;;5.90;99.90;;;;;;5051877;28;20808;-73
2023/01/06 00:03:59;;;;;;;7.10;3.20;;;5.80;99.90;;;;;;5052009;28;20766;-72
2023/01/06 00:06:27;;;;;;;4.23;2.63;;;5.80;99.90;;;;;;5051863;28;20431;-73
2023/01/06 00:09:01;;;;;;;3.93;3.50;;;5.80;1.00;;;;;;5051790;28;20415;-73
2023/01/06 00:11:27;;;;;;;3.40;3.10;;;5.70;1.00;;;;;;5051804;28;20416;-73
2023/01/06 00:13:54;;;;;;;3.60;3.20;;;5.80;1.00;;;;;;5052859;28;20449;-73
2023/01/06 00:16:21;;;;;;;14.47;6.03;;;5.80;1.00;;;;;;5052328;28;20169;-73
2023/01/06 00:18:47;;;;;;;5.50;3.30;;;5.80;1.00;;;;;;5051796;28;20463;-73
2023/01/06 00:21:14;;;;;;;7.50;4.00;;;5.80;1.00;;;;;;5051902;28;20405;-72
2023/01/06 00:23:40;;;;;;;14.07;7.53;;;5.80;1.00;;;;;;5052556;28;20408;-72
2023/01/06 00:26:08;;;;;;;6.33;3.77;;;5.80;1.00;;;;;;5051938;28;20413;-73
2023/01/06 00:28:34;;;;;;;5.40;3.63;;;5.80;1.00;;;;;;5052840;28;20453;-73
2023/01/06 00:31:06;;;;;;;3.90;3.60;;;5.70;1.00;;;;;;5052894;28;20405;-72
2023/01/06 00:33:32;;;;;;;4.60;4.20;;;5.70;1.00;;;;;;5052769;28;20532;-72
2023/01/06 00:35:58;;;;;;;12.10;3.40;;;5.70;1.00;;;;;;5052164;28;21076;-72
2023/01/06 00:38:24;;;;;;;8.30;3.90;;;5.80;1.00;;;;;;5052788;28;20218;-73
2023/01/06 00:40:50;;;;;;;4.07;3.67;;;5.80;1.00;;;;;;5054981;28;20401;-73
2023/01/06 00:43:15;;;;;;;4.43;4.03;;;5.80;1.00;;;;;;5056703;28;20174;-72
2023/01/06 00:45:41;;;;;;;8.43;4.10;;;5.80;1.00;;;;;;5056125;28;20205;-73
2023/01/06 00:48:07;;;;;;;8.70;4.00;;;5.80;1.00;;;;;;5056680;28;20148;-73
2023/01/06 00:50:32;;;;;;;7.23;4.03;;;5.80;1.00;;;;;;5057064;28;20173;-73
2023/01/06 00:52:58;;;;;;;7.47;4.93;;;5.80;1.00;;;;;;5056757;28;20167;-73
2023/01/06 00:55:24;;;;;;;6.40;4.47;;;5.80;1.00;;;;;;5055815;28;20205;-73
2023/01/06 00:57:53;;;;;;;7.50;4.37;;;5.80;1.00;;;;;;5056732;28;20174;-72
2023/01/06 01:00:19;;;;;;;7.60;5.30;;;5.80;1.00;;;;;;5055893;28;20166;-73
2023/01/06 01:02:45;;;;;;;8.23;4.67;;;5.80;1.00;;;;;;5056411;28;20407;-72
2023/01/06 01:05:11;;;;;;;7.90;4.20;;;5.80;1.00;;;;;;5055847;28;20416;-72
2023/01/06 01:07:37;;;;;;;5.30;4.80;;;5.80;1.00;;;;;;5055417;28;20711;-72
2023/01/06 01:10:03;;;;;;;7.13;3.70;;;5.80;1.00;;;;;;5056463;28;20250;-72
2023/01/06 01:12:28;;;;;;;5.53;4.70;;;5.80;1.00;;;;;;5056337;28;20797;-73
2023/01/06 01:14:54;;;;;;;4.90;4.40;;;5.80;1.00;;;;;;5055374;28;20521;-72
2023/01/06 01:17:30;;;;;;;6.77;3.67;;;5.90;1.00;;;;;;5055702;28;20209;-73
2023/01/06 01:19:58;;;;;;;8.10;4.23;;;5.90;1.00;;;;;;5056174;28;20397;-73
2023/01/06 01:22:25;;;;;;;5.73;4.87;;;5.90;1.00;;;;;;5056192;28;20424;-73
2023/01/06 01:24:51;;;;;;;9.03;4.93;;;5.90;1.00;;;;;;5055305;28;20428;-72
2023/01/06 01:27:17;;;;;;;5.73;5.10;;;5.90;1.00;;;;;;5056073;28;20727;-74
2023/01/06 01:29:43;;;;;;;8.37;4.40;;;5.90;1.00;;;;;;5056075;28;20174;-73
2023/01/06 01:32:09;;;;;;;6.43;4.43;;;5.90;1.00;;;;;;5055991;28;20400;-71
2023/01/06 01:34:35;;;;;;;8.10;5.67;;;5.90;1.00;;;;;;5054433;28;20317;-72
2023/01/06 01:37:01;;;;;;;5.23;4.50;;;5.90;1.00;;;;;;5055878;28;20546;-74
2023/01/06 01:39:29;;;;;;;4.20;3.80;;;5.80;1.00;;;;;;5054533;28;20231;-72
2023/01/06 01:41:57;;;;;;;7.83;4.53;;;5.90;1.00;;;;;;5055890;28;20463;-71
2023/01/06 01:44:55;;;;;;;5.53;4.23;;;5.90;1.00;;;;;;5053792;28;20425;-76
2023/01/06 01:47:26;;;;;;;10.13;4.63;;;5.90;18.60;;;;;;5055639;28;20420;-75
2023/01/06 01:49:56;;;;;;;11.90;4.43;;;5.90;29.30;;;;;;5055725;28;20518;-73
2023/01/06 01:52:22;;;;;;;4.30;3.80;;;5.90;49.90;;;;;;5054598;28;20412;-75
2023/01/06 01:54:50;;;;;;;4.93;4.20;;;6.00;71.60;;;;;;5054024;28;20461;-75
2023/01/06 01:57:23;;;;;;;4.97;4.53;;;6.00;78.10;;;;;;5054329;28;20459;-73
2023/01/06 01:59:50;;;;;;;6.23;4.50;;;6.00;91.00;;;;;;5055575;28;20495;-72
2023/01/06 02:02:17;;;;;;;4.60;4.23;;;6.00;98.90;;;;;;5055373;28;20898;-75
2023/01/06 02:04:50;;;;;;;4.77;3.50;;;6.10;99.90;;;;;;5054593;28;20421;-73
2023/01/06 02:07:16;;;;;;;4.83;4.53;;;6.10;99.90;;;;;;5042576;28;20429;-74
2023/01/06 02:10:04;;;;;;;3.57;3.27;;;6.10;99.90;;;;;;5034946;28;20397;-75
2023/01/06 02:12:30;;;;;;;6.23;4.43;;;6.10;99.90;;;;;;5034855;28;20442;-72
2023/01/06 02:14:56;;;;;;;5.13;3.90;;;6.20;99.90;;;;;;5034321;28;20454;-73
2023/01/06 02:17:40;;;;;;;3.70;3.40;;;6.20;99.90;;;;;;5034176;28;20468;-73
2023/01/06 02:20:31;;;;;;;3.87;3.57;;;6.20;99.90;;;;;;5035196;28;20179;-72
2023/01/06 02:23:30;;;;;;;6.47;3.30;;;6.20;99.90;;;;;;5034962;28;20407;-76
2023/01/06 02:26:11;;;;;;;9.40;4.50;;;6.30;99.90;;;;;;5033008;28;20871;-76
2023/01/06 02:28:55;;;;;;;6.03;4.60;;;6.30;99.90;;;;;;5034734;28;20915;-76
2023/01/06 02:31:27;;;;;;;4.97;4.30;;;6.30;99.90;;;;;;5034929;28;20805;-76
2023/01/06 02:34:23;;;;;;;6.60;4.40;;;6.30;99.90;;;;;;5034729;28;20457;-72
2023/01/06 02:37:07;;;;;;;7.83;4.00;;;6.30;99.90;;;;;;5034916;28;20441;-77
2023/01/06 02:39:38;;;;;;;3.97;3.67;;;6.40;99.90;;;;;;5034724;28;20485;-73
2023/01/06 02:42:22;;;;;;;6.70;4.40;;;6.40;99.90;;;;;;5033811;28;20410;-72
2023/01/06 02:45:03;;;;;;;5.70;4.33;;;6.50;99.90;;;;;;5034058;28;20517;-73
2023/01/06 02:48:05;;;;;;;4.00;3.80;;;6.50;99.90;;;;;;5033014;28;20418;-73
2023/01/06 02:50:46;;;;;;;3.50;3.30;;;6.50;99.90;;;;;;5034504;28;20409;-80
2023/01/06 02:53:14;;;;;;;3.97;3.67;;;6.50;99.90;;;;;;5034274;28;20875;-80
2023/01/06 02:55:48;;;;;;;3.67;3.47;;;6.50;99.90;;;;;;5033648;28;20474;-73
2023/01/06 02:58:27;;;;;;;3.70;3.50;;;6.50;99.90;;;;;;5034386;28;20408;-81
2023/01/06 03:01:22;;;;;;;4.00;3.70;;;6.60;99.90;;;;;;5034419;28;20398;-80
2023/01/06 03:03:50;;;;;;;4.17;3.77;;;6.60;99.90;;;;;;5033024;28;20506;-80
2023/01/06 03:06:26;;;;;;;3.30;3.10;;;6.60;99.90;;;;;;5033344;28;20910;-74
2023/01/06 03:08:55;;;;;;;3.33;3.03;;;6.50;99.90;;;;;;5034281;28;20448;-74
2023/01/06 03:11:20;;;;;;;3.63;3.40;;;6.60;99.90;;;;;;5033897;28;20422;-79
2023/01/06 03:14:02;;;;;;;4.50;3.87;;;6.60;99.90;;;;;;5033922;28;20457;-80
2023/01/06 03:16:28;;;;;;;3.37;2.70;;;6.60;99.90;;;;;;5033575;28;20402;-73
2023/01/06 03:18:54;;;;;;;3.30;2.87;;;6.60;99.90;;;;;;5034088;28;20939;-75
2023/01/06 03:21:24;;;;;;;3.83;3.53;;;6.70;99.90;;;;;;5033972;28;20433;-73
2023/01/06 03:23:51;;;;;;;3.43;3.10;;;6.70;99.90;;;;;;5033574;28;20763;-72
2023/01/06 03:26:17;;;;;;;4.67;4.37;;;6.70;99.90;;;;;;5033036;28;20439;-80
2023/01/06 03:28:43;;;;;;;4.50;4.10;;;6.70;99.90;;;;;;5032859;28;20498;-81
2023/01/06 03:31:16;;;;;;;4.57;4.17;;;6.70;99.90;;;;;;5033820;28;20616;-73
2023/01/06 03:34:13;;;;;;;3.97;3.60;;;6.80;99.90;;;;;;5032338;28;20529;-73
2023/01/06 03:37:12;;;;;;;3.70;3.40;;;6.80;99.90;;;;;;5033221;28;20416;-80
2023/01/06 03:40:08;;;;;;;4.30;3.90;;;6.80;99.90;;;;;;5033492;28;20394;-79
2023/01/06 03:45:42;;;;;;;4.03;3.57;;;6.90;1.00;;;;;;5032925;28;20499;-78
2023/01/06 03:48:18;;;;;;;4.10;3.80;;;6.90;1.00;;;;;;5033587;28;20420;-72
2023/01/06 03:50:49;;;;;;;4.80;4.33;;;7.00;1.00;;;;;;5033649;28;20386;-73
2023/01/06 03:53:24;;;;;;;4.90;4.50;;;6.90;1.00;;;;;;5033239;28;20407;-80
2023/01/06 03:56:04;;;;;;;5.37;4.97;;;6.90;1.00;;;;;;5032536;28;20429;-72
2023/01/06 03:58:30;;;;;;;5.00;4.57;;;7.00;1.00;;;;;;5033322;28;20824;-81
2023/01/06 04:00:57;;;;;;;4.30;4.00;;;7.00;1.00;;;;;;5033648;28;20442;-80
2023/01/06 04:03:25;;;;;;;7.40;4.53;;;7.00;1.00;;;;;;5032988;28;20401;-73
2023/01/06 04:05:51;;;;;;;5.37;4.50;;;7.00;1.00;;;;;;5032322;28;20428;-79
2023/01/06 04:08:17;;;;;;;4.50;4.13;;;7.10;1.00;;;;;;5031940;28;20410;-73
2023/01/06 04:10:43;;;;;;;8.10;5.30;;;7.10;1.00;;;;;;5032242;28;20913;-73
2023/01/06 04:13:09;;;;;;;4.60;4.20;;;7.10;1.00;;;;;;5033183;28;20170;-73
2023/01/06 04:15:35;;;;;;;6.53;5.90;;;7.10;1.00;;;;;;5031554;28;20485;-78
2023/01/06 04:18:00;;;;;;;5.47;4.97;;;7.20;1.00;;;;;;5033123;28;20164;-82
2023/01/06 04:20:30;;;;;;;5.90;5.10;;;7.20;1.00;;;;;;5032938;28;20402;-76
2023/01/06 04:22:56;;;;;;;5.27;4.77;;;7.10;1.00;;;;;;5032891;28;20175;-76
2023/01/06 04:25:23;;;;;;;5.07;4.63;;;7.20;1.00;;;;;;5032470;28;20524;-81
2023/01/06 04:27:49;;;;;;;5.10;4.70;;;7.20;1.00;;;;;;5032958;28;21022;-73
2023/01/06 04:30:15;;;;;;;6.07;4.70;;;7.20;1.00;;;;;;5032915;28;20417;-77
2023/01/06 04:32:41;;;;;;;7.23;4.77;;;7.20;1.00;;;;;;5033100;28;20258;-81
2023/01/06 04:35:07;;;;;;;5.93;5.33;;;7.30;1.00;;;;;;5030767;28;20570;-81
2023/01/06 04:37:33;;;;;;;6.30;4.73;;;7.30;1.00;;;;;;5033008;28;20430;-80
2023/01/06 04:39:59;;;;;;;6.20;4.33;;;7.30;1.00;;;;;;5032522;28;20901;-79
2023/01/06 04:42:25;;;;;;;6.10;5.40;;;7.30;1.00;;;;;;5032848;28;20485;-80
2023/01/06 04:44:50;;;;;;;4.50;4.13;;;7.30;1.00;;;;;;5032130;28;20203;-78
2023/01/06 04:47:16;;;;;;;5.47;4.97;;;7.40;1.00;;;;;;5032838;28;20171;-80
2023/01/06 04:49:42;;;;;;;5.60;4.97;;;7.30;1.00;;;;;;5031407;28;20175;-80
2023/01/06 04:52:07;;;;;;;5.30;4.80;;;7.30;1.00;;;;;;5032712;28;20258;-73
2023/01/06 04:54:34;;;;;;;4.37;3.97;;;7.30;1.00;;;;;;5030838;28;20207;-73
2023/01/06 04:57:00;;;;;;;4.40;4.00;;;7.40;1.00;;;;;;5032469;28;20598;-73
2023/01/06 04:59:25;;;;;;;4.20;3.90;;;7.40;1.00;;;;;;5032793;28;20493;-81
2023/01/06 05:01:51;;;;;;;5.40;4.90;;;7.40;1.00;;;;;;5032659;28;20640;-81
2023/01/06 05:04:17;;;;;;;4.13;3.60;;;7.40;1.00;;;;;;5032071;28;20667;-81
2023/01/06 05:06:44;;;;;;;4.73;4.33;;;7.50;1.00;;;;;;5032797;28;20177;-82
2023/01/06 05:09:09;;;;;;;5.23;4.77;;;7.50;1.00;;;;;;5032662;28;20579;-81
2023/01/06 05:11:35;;;;;;;5.23;4.80;;;7.50;1.00;;;;;;5032734;28;20402;-73
2023/01/06 05:14:01;;;;;;;4.57;4.27;;;7.50;1.00;;;;;;5032051;28;20920;-82
2023/01/06 05:16:29;;;;;;;5.50;5.00;;;7.60;1.00;;;;;;5031945;28;20164;-81
2023/01/06 05:18:56;;;;;;;5.07;4.40;;;7.60;1.00;;;;;;5032549;28;20200;-80
2023/01/06 05:21:23;;;;;;;6.87;4.93;;;7.60;1.00;;;;;;5032707;28;20873;-72
2023/01/06 05:23:50;;;;;;;4.90;4.50;;;7.60;1.00;;;;;;5033615;28;20406;-81
2023/01/06 05:26:18;;;;;;;5.90;4.90;;;7.60;1.00;;;;;;5033210;28;20404;-73
2023/01/06 05:28:44;;;;;;;6.40;5.53;;;7.60;1.00;;;;;;5036112;28;20430;-81
2023/01/06 05:31:10;;;;;;;6.70;5.57;;;7.70;1.00;;;;;;5034708;28;20422;-73
2023/01/06 05:33:37;;;;;;;6.50;5.37;;;7.70;1.00;;;;;;5034640;28;20458;-74
2023/01/06 05:36:05;;;;;;;6.80;6.17;;;7.70;1.00;;;;;;5035298;28;20414;-81
2023/01/06 05:38:31;;;;;;;6.17;5.57;;;7.70;1.00;;;;;;5035743;28;20936;-81
2023/01/06 05:40:57;;;;;;;9.17;6.57;;;7.70;1.00;;;;;;5035840;28;20787;-73
2023/01/06 05:43:24;;;;;;;7.63;6.27;;;7.70;1.00;;;;;;5035970;28;20409;-73
2023/01/06 05:45:51;;;;;;;8.00;7.13;;;7.80;1.00;;;;;;5034931;28;20215;-82
2023/01/06 05:48:16;;;;;;;9.70;7.30;;;7.80;1.00;;;;;;5035468;28;20398;-74
2023/01/06 05:50:42;;;;;;;8.33;6.87;;;7.80;1.00;;;;;;5035669;28;20443;-81
2023/01/06 05:53:08;;;;;;;10.17;7.20;;;7.90;1.00;;;;;;5034322;28;20168;-73
2023/01/06 05:55:33;;;;;;;13.07;7.37;;;7.90;1.00;;;;;;5034818;28;20235;-77
2023/01/06 05:57:59;;;;;;;10.27;8.40;;;8.00;1.00;;;;;;5036115;28;20246;-81
2023/01/06 06:00:25;;;;;;;11.80;8.00;;;8.00;1.00;;;;;;5035460;28;20617;-80
2023/01/06 06:02:51;;;;;;;12.43;8.53;;;8.00;1.00;;;;;;5035403;28;20179;-80
2023/01/06 06:05:16;;;;;;;12.80;10.03;;;8.00;1.00;;;;;;5034408;28;20198;-78
2023/01/06 06:07:42;;;;;;;10.70;8.07;;;8.00;1.00;;;;;;5035261;28;20410;-81
2023/01/06 06:10:08;;;;;;;14.00;9.70;;;8.10;1.00;;;;;;5035521;28;20573;-82
2023/01/06 06:12:35;;;;;;;14.77;9.87;;;8.10;1.00;;;;;;5035185;28;20260;-74
2023/01/06 06:15:01;;;;;;;17.43;9.20;;;8.20;1.00;;;;;;5034260;28;20462;-80
2023/01/06 06:17:27;;;;;;;11.83;9.80;;;8.20;1.00;;;;;;5035207;28;20875;-72
2023/01/06 06:19:52;;;;;;;13.60;9.37;;;8.30;1.00;;;;;;5035232;28;20249;-82
2023/01/06 06:22:18;;;;;;;14.00;8.20;;;8.30;1.00;;;;;;5035201;28;20402;-73
2023/01/06 06:24:44;;;;;;;16.77;10.70;;;8.30;1.00;;;;;;5034066;28;20204;-81
2023/01/06 06:27:09;;;;;;;15.17;11.10;;;8.40;1.00;;;;;;5035023;28;20677;-72
2023/01/06 06:29:35;;;;;;;18.20;10.97;;;8.40;1.00;;;;;;5034945;28;20620;-73
2023/01/06 06:32:01;;;;;;;16.80;10.80;;;8.50;1.00;;;;;;5034979;28;20175;-82
2023/01/06 06:34:27;;;;;;;16.30;10.67;;;8.50;1.00;;;;;;5034122;28;20677;-73
2023/01/06 06:36:53;;;;;;;19.20;11.17;;;8.60;1.00;;;;;;5034423;28;20873;-81
2023/01/06 06:39:18;;;;;;;15.00;11.30;;;8.60;1.00;;;;;;5034345;28;20226;-73
2023/01/06 06:41:44;;;;;;;17.37;12.50;;;8.60;1.00;;;;;;5034316;28;20413;-82
2023/01/06 06:44:10;;;;;;;16.20;11.07;;;8.70;1.00;;;;;;5033774;28;20551;-82
2023/01/06 06:46:35;;;;;;;15.73;10.90;;;8.70;1.00;;;;;;5034190;28;20220;-81
2023/01/06 06:49:01;;;;;;;17.80;11.23;;;8.80;1.00;;;;;;5035679;28;20186;-74
2023/01/06 06:51:30;;;;;;;24.10;12.27;;;8.90;1.00;;;;;;5051450;28;20177;-82
2023/01/06 06:53:56;;;;;;;23.57;11.57;;;8.90;1.00;;;;;;5034407;28;20249;-82
2023/01/06 06:56:21;;;;;;;20.67;11.93;;;9.00;1.00;;;;;;5033859;28;20909;-80
2023/01/06 06:58:47;;;;;;;23.57;13.50;;;9.00;1.00;;;;;;5034528;28;20580;-72
2023/01/06 07:01:18;;;;;;;22.27;13.13;;;9.00;1.00;;;;;;5033024;28;20176;-71
2023/01/06 07:03:44;;;;;;;21.10;12.50;;;9.00;1.00;;;;;;5032909;28;20883;-71
2023/01/06 07:06:13;;;;;;;19.30;12.47;;;9.00;1.00;;;;;;5048984;28;20391;-73
2023/01/06 07:08:42;;;;;;;30.90;10.70;;;9.10;1.00;;;;;;5034256;28;20496;-71
2023/01/06 07:11:07;;;;;;;17.87;12.40;;;9.20;1.00;;;;;;5034074;28;20406;-73
2023/01/06 07:13:33;;;;;;;17.03;11.23;;;9.20;1.00;;;;;;5034262;28;20406;-73
2023/01/06 07:15:59;;;;;;;17.30;11.10;;;9.20;1.00;;;;;;5033493;28;20184;-71
2023/01/06 07:18:25;;;;;;;22.13;12.83;;;9.20;1.00;;;;;;5034083;28;20561;-79
2023/01/06 07:20:52;;;;;;;18.73;11.80;;;9.30;1.00;;;;;;5033646;28;20536;-73
2023/01/06 07:23:18;;;;;;;15.93;10.53;;;9.30;1.00;;;;;;5033934;28;20164;-79
2023/01/06 07:25:44;;;;;;;18.97;11.43;;;9.30;1.00;;;;;;5033084;28;20425;-73
2023/01/06 07:28:10;;;;;;;21.20;11.90;;;9.30;1.00;;;;;;5032718;28;20495;-73
2023/01/06 07:30:36;;;;;;;21.50;12.20;;;9.30;1.00;;;;;;5033855;28;20163;-73
2023/01/06 07:33:02;;;;;;;17.17;10.83;;;9.40;1.00;;;;;;5033803;28;20173;-82
2023/01/06 07:35:28;;;;;;;15.87;11.30;;;9.30;1.00;;;;;;5032938;28;20287;-73
2023/01/06 07:37:54;;;;;;;24.73;13.10;;;9.40;1.00;;;;;;5033653;28;20483;-72
2023/01/06 07:40:20;;;;;;;18.80;11.60;;;9.40;1.00;;;;;;5031713;28;20422;-84
2023/01/06 07:42:46;;;;;;;17.00;12.07;;;9.40;1.00;;;;;;5033802;28;20206;-72
2023/01/06 07:45:12;;;;;;;18.87;12.40;;;9.40;1.00;;;;;;5032771;28;20450;-72
2023/01/06 07:47:38;;;;;;;22.03;13.63;;;9.50;1.00;;;;;;5033433;28;20434;-73
2023/01/06 07:50:05;;;;;;;21.07;13.07;;;9.50;1.00;;;;;;5033540;28;20895;-72
2023/01/06 07:52:30;;;;;;;18.90;13.00;;;9.40;1.00;;;;;;5033440;28;20182;-81
2023/01/06 07:54:58;;;;;;;25.53;14.00;;;9.40;1.00;;;;;;5032610;28;20430;-80
2023/01/06 07:57:25;;;;;;;27.27;14.40;;;9.40;1.00;;;;;;5033127;28;20529;-80
2023/01/06 07:59:51;;;;;;;21.20;13.83;;;9.40;1.00;;;;;;5033286;28;20410;-81
2023/01/06 08:02:17;;;;;;;24.43;14.57;;;9.50;1.00;;;;;;5033292;28;20395;-81
2023/01/06 08:04:42;;;;;;;24.70;15.43;;;9.50;1.00;;;;;;5032606;28;20456;-81
2023/01/06 08:07:08;;;;;;;28.77;15.23;;;9.40;1.00;;;;;;5033166;28;20575;-73
2023/01/06 08:09:34;;;;;;;24.87;14.73;;;9.40;1.00;;;;;;5033106;28;20634;-81
2023/01/06 08:11:59;;;;;;;22.50;15.03;;;9.40;1.00;;;;;;5031734;28;20177;-81
2023/01/06 08:14:25;;;;;;;21.77;13.87;;;9.40;1.00;;;;;;5032294;28;20705;-74
2023/01/06 08:16:51;;;;;;;23.80;14.67;;;9.40;1.00;;;;;;5032131;28;20176;-74
2023/01/06 08:19:17;;;;;;;19.70;13.17;;;9.40;1.00;;;;;;5031810;28;20177;-74
2023/01/06 08:21:42;;;;;;;25.90;13.97;;;9.50;1.00;;;;;;5033030;28;20167;-79
2023/01/06 08:24:08;;;;;;;19.97;12.97;;;9.40;1.00;;;;;;5031755;28;20274;-75
2023/01/06 08:26:34;;;;;;;25.43;14.37;;;9.40;1.00;;;;;;5032523;28;20642;-80
2023/01/06 08:28:59;;;;;;;19.57;13.17;;;9.50;1.00;;;;;;5031470;28;20177;-79
2023/01/06 08:31:25;;;;;;;18.60;14.03;;;9.50;1.00;;;;;;5033139;28;20173;-75
2023/01/06 08:33:52;;;;;;;22.13;13.10;;;9.50;1.00;;;;;;5032731;28;20603;-76
2023/01/06 08:36:20;;;;;;;20.97;12.90;;;9.50;1.00;;;;;;5032238;28;20651;-79
2023/01/06 08:38:46;;;;;;;21.30;14.40;;;9.50;1.00;;;;;;5032955;28;20407;-75
2023/01/06 08:41:12;;;;;;;17.63;12.33;;;9.50;1.00;;;;;;5031550;28;20906;-80
2023/01/06 08:43:40;;;;;;;21.43;11.90;;;9.50;1.00;;;;;;5032919;28;20404;-78
2023/01/06 08:46:09;;;;;;;19.10;13.13;;;9.50;1.00;;;;;;5031721;28;20441;-75
2023/01/06 08:48:35;;;;;;;18.93;12.60;;;9.50;1.00;;;;;;5031556;28;20502;-78
2023/01/06 08:51:06;;;;;;;15.50;11.90;;;9.50;1.00;;;;;;5031445;28;20511;-75
2023/01/06 08:53:33;;;;;;;18.70;12.73;;;9.50;1.00;;;;;;5032778;28;20408;-76
2023/01/06 08:55:58;;;;;;;20.97;12.10;;;9.50;1.00;;;;;;5031970;28;20421;-76
2023/01/06 08:58:25;;;;;;;17.90;12.93;;;9.50;1.00;;;;;;5032630;28;20773;-74
2023/01/06 09:00:51;;;;;;;18.50;13.27;;;9.50;1.00;;;;;;5033744;28;20169;-79
2023/01/06 09:03:17;;;;;;;17.37;11.40;;;9.50;1.00;;;;;;5036511;28;20409;-79
2023/01/06 09:05:43;;;;;;;20.23;12.70;;;9.50;1.00;;;;;;5035819;28;20776;-78
2023/01/06 09:08:09;;;;;;;19.30;12.07;;;9.50;1.00;;;;;;5036478;28;20790;-74
2023/01/06 09:10:38;;;;;;;14.60;10.13;;;9.50;1.00;;;;;;5036386;28;20554;-75
2023/01/06 09:13:04;;;;;;;19.17;13.13;;;9.50;1.00;;;;;;5036447;28;20169;-76
2023/01/06 09:15:30;;;;;;;18.53;10.93;;;9.50;1.00;;;;;;5035576;28;20958;-73
2023/01/06 09:17:56;;;;;;;14.87;10.77;;;9.60;1.00;;;;;;5036363;28;20203;-77
2023/01/06 09:20:22;;;;;;;1.10;1.00;;;9.60;1.00;;;;;;5036110;28;20430;-78
2023/01/06 09:22:48;;;;;;;1.00;0.90;;;9.60;1.00;;;;;;5036064;28;20239;-73
2023/01/06 09:25:13;;;;;;;1.00;0.90;;;9.50;1.00;;;;;;5035530;28;20428;-76
2023/01/06 09:27:39;;;;;;;0.90;0.80;;;9.50;1.00;;;;;;5034533;28;20180;-73
2023/01/06 09:30:07;;;;;;;5.17;1.47;;;9.60;1.00;;;;;;5036116;28;20173;-76
2023/01/06 09:32:33;;;;;;;4.83;4.63;;;9.50;1.00;;;;;;5036016;28;20180;-75
2023/01/06 09:34:58;;;;;;;1.00;0.90;;;9.60;1.00;;;;;;5035229;28;20985;-73
2023/01/06 09:37:24;;;;;;;1.00;0.90;;;9.50;1.00;;;;;;5036003;28;20421;-74
2023/01/06 09:39:49;;;;;;;1.00;0.90;;;9.60;1.00;;;;;;5035995;28;20183;-75
2023/01/06 09:42:40;;;;;;;0.90;0.80;;;9.60;1.00;;;;;;5035323;28;20175;-76
2023/01/06 09:45:29;;;;;;;1.00;0.90;;;9.60;1.00;;;;;;5033857;28;20711;-75
2023/01/06 09:47:58;;;;;;;1.00;0.90;;;9.60;1.00;;;;;;5035851;28;20398;-75
2023/01/06 09:50:46;;;;;;;0.90;0.80;;;9.60;1.00;;;;;;5035740;28;20416;-75
2023/01/06 09:53:23;;;;;;;0.90;0.80;;;9.70;1.00;;;;;;5035764;28;20418;-76
2023/01/06 09:55:56;;;;;;;0.90;0.80;;;9.60;1.00;;;;;;5034835;28;20459;-76
2023/01/06 09:58:36;;;;;;;1.00;0.90;;;9.70;1.00;;;;;;5035582;28;20406;-73
2023/01/06 10:01:09;;;;;;;0.90;0.80;;;9.70;1.00;;;;;;5035052;28;20425;-76
2023/01/06 10:03:35;;;;;;;1.00;0.90;;;9.60;1.00;;;;;;5035533;28;20495;-72
2023/01/06 10:06:33;;;;;;;1.00;0.90;;;9.60;1.00;;;;;;5034628;28;20464;-72
2023/01/06 10:09:25;;;;;;;1.00;0.90;;;9.60;1.00;;;;;;5035350;28;20165;-76
2023/01/06 10:12:00;;;;;;;0.90;0.80;;;9.60;1.00;;;;;;5033377;28;20416;-76
2023/01/06 10:14:40;;;;;;;1.00;0.90;;;9.60;1.00;;;;;;5034299;28;20834;-73
2023/01/06 10:17:18;;;;;;;1.10;1.00;;;9.60;1.00;;;;;;5035258;28;20405;-70
2023/01/06 10:20:00;;;;;;;0.93;0.83;;;9.50;1.00;;;;;;5033686;28;20422;-70
2023/01/06 10:22:40;;;;;;;0.90;0.80;;;9.60;1.00;;;;;;5035185;28;20407;-77
2023/01/06 10:25:31;;;;;;;1.00;0.90;;;9.60;1.00;;;;;;5034342;28;20437;-77
2023/01/06 10:28:12;;;;;;;1.00;0.90;;;9.60;1.00;;;;;;5035049;28;20415;-77
2023/01/06 10:30:42;;;;;;;0.93;0.83;;;9.60;1.00;;;;;;5034968;28;20410;-78
2023/01/06 10:33:24;;;;;;;1.00;0.90;;;9.60;1.00;;;;;;5034961;28;20430;-77
2023/01/06 10:35:51;;;;;;;1.00;0.90;;;9.50;1.00;;;;;;5034174;28;20447;-70
2023/01/06 10:38:18;;;;;;;1.07;0.97;;;9.40;1.00;;;;;;5033174;28;20826;-79
2023/01/06 10:40:44;;;;;;;1.17;1.07;;;9.30;1.00;;;;;;5034687;28;20460;-70
2023/01/06 10:43:13;;;;;;;1.10;1.00;;;9.40;1.00;;;;;;5034773;28;20415;-70
2023/01/06 10:45:45;;;;;;;1.10;1.00;;;9.50;1.00;;;;;;5033878;28;20696;-79
2023/01/06 10:48:31;;;;;;;1.00;0.90;;;9.40;1.00;;;;;;5034628;28;20416;-78
2023/01/06 10:50:59;;;;;;;1.10;1.00;;;9.30;99.90;;;;;;5033513;28;20418;-72
2023/01/06 10:53:25;;;;;;;1.00;0.90;;;9.30;99.90;;;;;;5034534;28;20425;-71
2023/01/06 10:55:56;;;;;;;1.00;0.90;;;9.20;99.90;;;;;;5033233;28;20956;-78
2023/01/06 10:58:40;;;;;;;1.00;0.90;;;9.10;99.90;;;;;;5033122;28;20737;-80
2023/01/06 11:01:22;;;;;;;0.90;0.80;;;9.20;99.90;;;;;;5034305;28;20413;-79
2023/01/06 11:04:14;;;;;;;1.00;0.90;;;9.20;99.90;;;;;;5034333;28;20404;-80
2023/01/06 11:06:44;;;;;;;0.97;0.87;;;9.20;99.90;;;;;;5033812;28;20524;-70
2023/01/06 11:09:29;;;;;;;0.97;0.87;;;9.20;99.90;;;;;;5034219;28;20427;-77
2023/01/06 11:11:57;;;;;;;1.00;0.90;;;9.10;99.90;;;;;;5033731;28;20380;-70
2023/01/06 11:14:31;;;;;;;1.00;0.90;;;9.20;99.90;;;;;;5033281;28;20488;-80
2023/01/06 11:17:09;;;;;;;0.90;0.80;;;9.30;99.90;;;;;;5034082;28;20852;-80
2023/01/06 11:19:39;;;;;;;0.90;0.80;;;9.20;99.90;;;;;;5033995;28;20512;-71
2023/01/06 11:22:30;;;;;;;0.90;0.80;;;9.30;99.90;;;;;;5034005;28;20862;-79
2023/01/06 11:24:56;;;;;;;1.00;0.90;;;9.30;99.90;;;;;;5031860;28;20413;-69
2023/01/06 11:27:22;;;;;;;1.00;0.90;;;9.20;99.90;;;;;;5032856;28;20744;-79
2023/01/06 11:29:47;;;;;;;1.00;0.90;;;9.20;99.90;;;;;;5033602;28;20179;-71
2023/01/06 11:32:24;;;;;;;1.00;0.90;;;9.20;99.90;;;;;;5033503;28;20194;-80
2023/01/06 11:34:58;;;;;;;1.00;0.90;;;9.10;99.90;;;;;;5033006;28;20205;-81
2023/01/06 11:37:37;;;;;;;1.10;1.00;;;9.00;99.90;;;;;;5033645;28;20433;-77
2023/01/06 11:40:15;;;;;;;0.90;0.80;;;9.00;99.90;;;;;;5033751;28;20496;-75
2023/01/06 11:42:41;;;;;;;1.00;0.90;;;9.00;99.90;;;;;;5032703;28;20413;-76
2023/01/06 11:45:27;;;;;;;1.00;0.90;;;9.00;99.90;;;;;;5032826;28;20446;-74
2023/01/06 11:47:53;;;;;;;1.00;0.90;;;9.00;99.90;;;;;;5031567;28;20426;-81
2023/01/06 11:50:19;;;;;;;1.07;0.97;;;9.00;99.90;;;;;;5033431;28;20386;-72
2023/01/06 11:52:57;;;;;;;1.03;0.93;;;8.90;99.90;;;;;;5033499;28;20155;-72
2023/01/06 11:55:25;;;;;;;1.00;0.90;;;9.00;99.90;;;;;;5032579;28;20976;-80
2023/01/06 11:58:13;;;;;;;1.00;0.90;;;9.00;99.90;;;;;;5033404;28;20410;-70
2023/01/06 12:01:03;;;;;;;0.97;0.87;;;9.00;99.90;;;;;;5033425;28;20409;-82
2023/01/06 12:03:40;;;;;;;1.00;0.90;;;9.00;98.90;;;;;;5033309;28;20391;-79
2023/01/06 12:06:24;;;;;;;1.00;0.90;;;8.90;90.00;;;;;;5031901;28;20947;-71
2023/01/06 12:09:00;;;;;;;1.10;1.00;;;8.90;81.90;;;;;;5031972;28;20461;-71
2023/01/06 12:11:44;;;;;;;1.10;1.00;;;8.90;80.30;;;;;;5031902;28;20836;-72
2023/01/06 12:14:16;;;;;;;1.10;1.00;;;9.00;66.60;;;;;;5031559;28;20969;-79
2023/01/06 12:17:06;;;;;;;1.10;1.00;;;9.10;48.20;;;;;;5032882;28;20402;-78
2023/01/06 12:19:55;;;;;;;1.00;0.90;;;9.10;31.60;;;;;;5033022;28;20405;-71
2023/01/06 12:22:45;;;;;;;1.00;0.90;;;9.00;17.00;;;;;;5033123;28;20462;-71
2023/01/06 12:25:39;;;;;;;1.00;0.90;;;8.90;1.00;;;;;;5031861;28;20422;-71
2023/01/06 12:28:09;;;;;;;1.00;0.90;;;8.90;1.00;;;;;;5032994;28;20465;-76
2023/01/06 12:30:59;;;;;;;1.00;0.90;;;9.00;1.00;;;;;;5033099;28;20399;-76
2023/01/06 12:33:46;;;;;;;0.90;0.80;;;9.10;1.00;;;;;;5032981;28;20413;-73
2023/01/06 12:36:23;;;;;;;1.00;0.90;;;9.10;1.00;;;;;;5033905;28;20414;-75
2023/01/06 12:39:17;;;;;;;1.00;0.90;;;9.00;1.00;;;;;;5036110;28;20386;-72
2023/01/06 12:41:54;;;;;;;1.00;0.90;;;9.10;1.00;;;;;;5036282;28;20410;-73
2023/01/06 12:44:28;;;;;;;1.00;0.90;;;9.00;1.00;;;;;;5034983;28;20423;-72
2023/01/06 12:47:04;;;;;;;1.00;0.90;;;9.00;1.00;;;;;;5036894;28;20398;-72
2023/01/06 12:49:41;;;;;;;1.10;1.00;;;8.90;1.00;;;;;;5036920;28;20425;-74
2023/01/06 12:52:14;;;;;;;1.00;0.90;;;8.90;1.00;;;;;;5036776;28;20477;-73
2023/01/06 12:54:41;;;;;;;1.00;0.90;;;8.90;1.00;;;;;;5034855;28;20454;-73
2023/01/06 12:57:30;;;;;;;1.10;1.00;;;8.90;1.00;;;;;;5035675;28;20417;-73
2023/01/06 13:00:10;;;;;;;1.00;0.90;;;8.80;1.00;;;;;;5035438;28;20998;-73
2023/01/06 13:03:01;;;;;;;0.90;0.80;;;8.80;1.00;;;;;;5036160;28;20962;-71
2023/01/06 13:05:46;;;;;;;1.10;1.00;;;8.80;1.00;;;;;;5034786;28;20433;-72
2023/01/06 13:08:39;;;;;;;1.00;0.90;;;8.80;1.00;;;;;;5036616;28;20394;-73
2023/01/06 13:11:31;;;;;;;1.00;0.90;;;8.80;1.00;;;;;;5036465;28;20802;-73
2023/01/06 13:14:04;;;;;;;1.07;0.97;;;8.80;1.00;;;;;;5032330;28;20514;-72
2023/01/06 13:16:35;;;;;;;1.10;1.00;;;8.90;1.00;;;;;;5035886;28;20398;-72
2023/01/06 13:19:04;;;;;;;1.00;0.90;;;8.90;1.00;;;;;;5035069;28;20404;-73
2023/01/06 13:21:31;;;;;;;0.97;0.87;;;8.90;1.00;;;;;;5035745;28;20408;-72
2023/01/06 13:24:00;;;;;;;1.00;0.90;;;9.00;1.00;;;;;;5036210;28;20759;-73